createdAt,value
2015-12-24T00:00:00.008Z,1023.87
2015-12-24T00:00:59.964Z,1023.88
2015-12-24T00:01:59.935Z,1023.83
2015-12-24T00:02:59.906Z,1023.87
2015-12-24T00:03:59.877Z,1023.88
2015-12-24T00:04:59.850Z,1023.91
2015-12-24T00:05:59.820Z,1023.97
2015-12-24T00:06:59.808Z,1023.99
2015-12-24T00:07:59.763Z,1023.99
2015-12-24T00:08:59.735Z,1023.97
2015-12-24T00:09:59.706Z,1023.99
2015-12-24T00:10:59.663Z,1023.95
2015-12-24T00:11:59.650Z,1023.94
2015-12-24T00:12:59.605Z,1023.89
2015-12-24T00:13:59.592Z,1023.89
2015-12-24T00:14:59.549Z,1023.94
2015-12-24T00:15:59.519Z,1023.88
2015-12-24T00:16:59.492Z,1023.9
2015-12-24T00:17:59.463Z,1023.89
2015-12-24T00:18:59.481Z,1023.88
2015-12-24T00:19:59.422Z,1023.9
2015-12-24T00:20:59.377Z,1023.88
2015-12-24T00:21:59.364Z,1023.87
2015-12-24T00:22:59.320Z,1023.86
2015-12-24T00:23:59.307Z,1023.86
2015-12-24T00:24:59.263Z,1023.9
2015-12-24T00:25:59.235Z,1023.88
2015-12-24T00:26:59.206Z,1023.89
2015-12-24T00:27:59.178Z,1023.9
2015-12-24T00:28:59.149Z,1023.89
2015-12-24T00:29:59.121Z,1023.89
2015-12-24T00:30:59.092Z,1023.92
2015-12-24T00:31:59.063Z,1023.95
2015-12-24T00:32:59.035Z,1023.91
2015-12-24T00:33:59.022Z,1023.94
2015-12-24T00:34:58.979Z,1023.96
2015-12-24T00:35:58.935Z,1023.91
2015-12-24T00:36:58.905Z,1023.93
2015-12-24T00:37:58.877Z,1023.92
2015-12-24T00:38:58.864Z,1023.88
2015-12-24T00:39:58.820Z,1023.88
2015-12-24T00:40:58.823Z,1023.88
2015-12-24T00:41:58.779Z,1023.91
2015-12-24T00:42:58.751Z,1023.89
2015-12-24T00:43:58.721Z,1023.9
2015-12-24T00:44:58.677Z,1023.95
2015-12-24T00:45:58.665Z,1023.94
2015-12-24T00:46:58.620Z,1023.96
2015-12-24T00:47:58.592Z,1023.98
2015-12-24T00:48:58.564Z,1023.94
2015-12-24T00:49:58.535Z,1023.97
2015-12-24T00:50:58.507Z,1023.97
2015-12-24T00:51:58.478Z,1023.96
2015-12-24T00:52:58.449Z,1023.95
2015-12-24T00:53:58.418Z,1023.96
2015-12-24T00:54:58.390Z,1023.95
2015-12-24T00:55:58.362Z,1023.91
2015-12-24T00:56:58.332Z,1023.93
2015-12-24T00:57:58.289Z,1023.91
2015-12-24T00:58:58.276Z,1023.87
2015-12-24T00:59:58.232Z,1023.86
2015-12-24T01:00:58.203Z,1023.81
2015-12-24T01:01:58.175Z,1023.77
2015-12-24T01:02:58.146Z,1023.82
2015-12-24T01:03:58.117Z,1023.8
2015-12-24T01:04:58.088Z,1023.78
2015-12-24T01:05:58.076Z,1023.84
2015-12-24T01:06:58.032Z,1023.82
2015-12-24T01:07:58.003Z,1023.8
2015-12-24T01:08:57.990Z,1023.77
2015-12-24T01:09:57.946Z,1023.81
2015-12-24T01:10:57.917Z,1023.84
2015-12-24T01:11:57.920Z,1023.85
2015-12-24T01:12:57.861Z,1023.88
2015-12-24T01:13:57.833Z,1023.87
2015-12-24T01:14:57.803Z,1023.88
2015-12-24T01:15:57.759Z,1023.9
2015-12-24T01:16:57.731Z,1023.89
2015-12-24T01:17:57.718Z,1023.92
2015-12-24T01:18:57.674Z,1023.92
2015-12-24T01:19:57.645Z,1023.94
2015-12-24T01:20:57.633Z,1023.91
2015-12-24T01:21:57.588Z,1023.92
2015-12-24T01:22:57.576Z,1023.93
2015-12-24T01:23:57.531Z,1023.95
2015-12-24T01:24:57.502Z,1023.96
2015-12-24T01:25:57.474Z,1024
2015-12-24T01:26:57.447Z,1024.02
2015-12-24T01:27:57.464Z,1024
2015-12-24T01:28:57.404Z,1024.03
2015-12-24T01:29:57.361Z,1024.03
2015-12-24T01:30:57.332Z,1023.99
2015-12-24T01:31:57.303Z,1024.05
2015-12-24T01:32:57.275Z,1024.04
2015-12-24T01:33:57.247Z,1024.06
2015-12-24T01:34:57.234Z,1024.04
2015-12-24T01:35:57.173Z,1024.05
2015-12-24T01:36:57.145Z,1024.08
2015-12-24T01:37:57.132Z,1024.03
2015-12-24T01:38:57.088Z,1024.02
2015-12-24T01:39:57.059Z,1024
2015-12-24T01:40:57.046Z,1024
2015-12-24T01:41:57.002Z,1024
2015-12-24T01:42:56.975Z,1023.98
2015-12-24T01:43:56.946Z,1024.01
2015-12-24T01:44:56.917Z,1023.97
2015-12-24T01:45:56.888Z,1023.96
2015-12-24T01:46:56.857Z,1023.95
2015-12-24T01:47:56.813Z,1023.91
2015-12-24T01:48:56.832Z,1023.96
2015-12-24T01:49:56.756Z,1023.96
2015-12-24T01:50:56.728Z,1023.96
2015-12-24T01:51:56.699Z,1023.95
2015-12-24T01:52:56.671Z,1023.96
2015-12-24T01:53:56.643Z,1023.99
2015-12-24T01:54:56.613Z,1023.99
2015-12-24T01:55:56.601Z,1024.04
2015-12-24T01:56:56.556Z,1024.03
2015-12-24T01:57:56.529Z,1024.04
2015-12-24T01:58:56.515Z,1024.03
2015-12-24T01:59:56.471Z,1024.04
2015-12-24T02:00:56.442Z,1024.05
2015-12-24T02:01:56.461Z,1024.04
2015-12-24T02:02:56.384Z,1023.94
2015-12-24T02:03:56.357Z,1023.97
2015-12-24T02:04:56.329Z,1023.94
2015-12-24T02:05:56.284Z,1023.94
2015-12-24T02:06:56.287Z,1023.9
2015-12-24T02:07:56.228Z,1023.89
2015-12-24T02:08:56.198Z,1023.92
2015-12-24T02:09:56.170Z,1023.91
2015-12-24T02:10:56.142Z,1023.95
2015-12-24T02:11:56.113Z,1023.99
2015-12-24T02:12:56.085Z,1023.98
2015-12-24T02:13:56.057Z,1024.02
2015-12-24T02:14:56.028Z,1024
2015-12-24T02:15:55.999Z,1023.99
2015-12-24T02:16:55.971Z,1024
2015-12-24T02:17:55.943Z,1024.01
2015-12-24T02:18:55.915Z,1023.99
2015-12-24T02:19:55.886Z,1024.02
2015-12-24T02:20:55.857Z,1024.01
2015-12-24T02:21:55.812Z,1024.01
2015-12-24T02:22:55.784Z,1024.04
2015-12-24T02:23:55.771Z,1024.03
2015-12-24T02:24:55.728Z,1024.03
2015-12-24T02:25:55.698Z,1024
2015-12-24T02:26:55.670Z,1023.96
2015-12-24T02:27:55.642Z,1023.97
2015-12-24T02:28:55.628Z,1023.95
2015-12-24T02:29:55.584Z,1023.93
2015-12-24T02:30:55.556Z,1023.88
2015-12-24T02:31:55.527Z,1023.86
2015-12-24T02:32:55.499Z,1023.86
2015-12-24T02:33:55.471Z,1023.78
2015-12-24T02:34:55.442Z,1023.8
2015-12-24T02:35:55.414Z,1023.8
2015-12-24T02:36:55.383Z,1023.81
2015-12-24T02:37:55.339Z,1023.84
2015-12-24T02:38:55.311Z,1023.9
2015-12-24T02:39:55.281Z,1023.89
2015-12-24T02:40:55.253Z,1023.95
2015-12-24T02:41:55.224Z,1023.93
2015-12-24T02:42:55.196Z,1023.98
2015-12-24T02:43:55.166Z,1023.98
2015-12-24T02:44:55.139Z,1023.97
2015-12-24T02:45:55.110Z,1024
2015-12-24T02:46:55.082Z,1023.95
2015-12-24T02:47:55.053Z,1023.96
2015-12-24T02:48:55.025Z,1023.93
2015-12-24T02:49:54.980Z,1023.95
2015-12-24T02:50:54.968Z,1023.97
2015-12-24T02:51:54.923Z,1023.96
2015-12-24T02:52:54.894Z,1023.97
2015-12-24T02:53:54.866Z,1023.99
2015-12-24T02:54:54.838Z,1024.01
2015-12-24T02:55:54.809Z,1024.03
2015-12-24T02:56:54.780Z,1024.04
2015-12-24T02:57:54.752Z,1024.01
2015-12-24T02:58:54.724Z,1023.98
2015-12-24T02:59:54.695Z,1024.04
2015-12-24T03:00:54.666Z,1023.98
2015-12-24T03:01:54.653Z,1023.96
2015-12-24T03:02:54.609Z,1023.97
2015-12-24T03:03:54.565Z,1023.94
2015-12-24T03:04:54.537Z,1023.96
2015-12-24T03:05:54.508Z,1023.97
2015-12-24T03:06:54.479Z,1023.97
2015-12-24T03:07:54.451Z,1023.96
2015-12-24T03:08:54.423Z,1023.97
2015-12-24T03:09:54.394Z,1023.97
2015-12-24T03:10:54.365Z,1023.9
2015-12-24T03:11:54.337Z,1023.91
2015-12-24T03:12:54.323Z,1023.91
2015-12-24T03:13:54.280Z,1023.87
2015-12-24T03:14:54.267Z,1023.9
2015-12-24T03:15:54.239Z,1023.97
2015-12-24T03:16:54.194Z,1023.95
2015-12-24T03:17:54.166Z,1023.92
2015-12-24T03:18:54.122Z,1023.96
2015-12-24T03:19:54.093Z,1023.95
2015-12-24T03:20:54.080Z,1023.93
2015-12-24T03:21:54.036Z,1023.93
2015-12-24T03:22:54.008Z,1023.94
2015-12-24T03:23:53.979Z,1023.93
2015-12-24T03:24:53.950Z,1023.95
2015-12-24T03:25:53.938Z,1023.96
2015-12-24T03:26:53.894Z,1023.98
2015-12-24T03:27:53.864Z,1023.97
2015-12-24T03:28:53.836Z,1023.98
2015-12-24T03:29:53.792Z,1023.98
2015-12-24T03:30:53.795Z,1023.94
2015-12-24T03:31:53.735Z,1023.91
2015-12-24T03:32:53.707Z,1023.94
2015-12-24T03:33:53.678Z,1023.91
2015-12-24T03:34:53.650Z,1023.92
2015-12-24T03:35:53.621Z,1023.9
2015-12-24T03:36:53.593Z,1023.86
2015-12-24T03:37:53.564Z,1023.9
2015-12-24T03:38:53.536Z,1023.87
2015-12-24T03:39:53.508Z,1023.83
2015-12-24T03:40:53.463Z,1023.84
2015-12-24T03:41:53.450Z,1023.89
2015-12-24T03:42:53.422Z,1023.85
2015-12-24T03:43:53.375Z,1023.85
2015-12-24T03:44:53.347Z,1023.79
2015-12-24T03:45:53.318Z,1023.82
2015-12-24T03:46:53.289Z,1023.82
2015-12-24T03:47:53.260Z,1023.76
2015-12-24T03:48:53.233Z,1023.77
2015-12-24T03:49:53.204Z,1023.73
2015-12-24T03:50:53.175Z,1023.7
2015-12-24T03:51:53.132Z,1023.71
2015-12-24T03:52:53.102Z,1023.66
2015-12-24T03:53:53.074Z,1023.66
2015-12-24T03:54:53.046Z,1023.58
2015-12-24T03:55:53.017Z,1023.62
2015-12-24T03:56:52.988Z,1023.62
2015-12-24T03:57:52.960Z,1023.6
2015-12-24T03:58:52.946Z,1023.63
2015-12-24T03:59:52.903Z,1023.58
2015-12-24T04:00:52.874Z,1023.59
2015-12-24T04:01:52.845Z,1023.59
2015-12-24T04:02:52.818Z,1023.59
2015-12-24T04:03:52.790Z,1023.52
2015-12-24T04:04:52.745Z,1023.47
2015-12-24T04:05:52.716Z,1023.48
2015-12-24T04:06:52.687Z,1023.48
2015-12-24T04:07:52.659Z,1023.43
2015-12-24T04:08:52.631Z,1023.44
2015-12-24T04:09:52.602Z,1023.45
2015-12-24T04:10:52.574Z,1023.44
2015-12-24T04:11:52.546Z,1023.38
2015-12-24T04:12:52.518Z,1023.41
2015-12-24T04:13:52.473Z,1023.43
2015-12-24T04:14:52.459Z,1023.43
2015-12-24T04:15:52.416Z,1023.38
2015-12-24T04:16:52.387Z,1023.4
2015-12-24T04:17:52.359Z,1023.41
2015-12-24T04:18:52.331Z,1023.38
2015-12-24T04:19:52.302Z,1023.41
2015-12-24T04:20:52.273Z,1023.36
2015-12-24T04:21:52.245Z,1023.36
2015-12-24T04:22:52.217Z,1023.32
2015-12-24T04:23:52.188Z,1023.32
2015-12-24T04:24:52.143Z,1023.28
2015-12-24T04:25:52.115Z,1023.27
2015-12-24T04:26:52.087Z,1023.31
2015-12-24T04:27:52.058Z,1023.3
2015-12-24T04:28:52.029Z,1023.26
2015-12-24T04:29:52.001Z,1023.27
2015-12-24T04:30:51.972Z,1023.29
2015-12-24T04:31:51.944Z,1023.33
2015-12-24T04:32:51.915Z,1023.41
2015-12-24T04:33:51.884Z,1023.4
2015-12-24T04:34:51.856Z,1023.35
2015-12-24T04:35:51.828Z,1023.36
2015-12-24T04:36:51.783Z,1023.38
2015-12-24T04:37:51.755Z,1023.39
2015-12-24T04:38:51.725Z,1023.31
2015-12-24T04:39:51.714Z,1023.27
2015-12-24T04:40:51.669Z,1023.31
2015-12-24T04:41:51.641Z,1023.29
2015-12-24T04:42:51.612Z,1023.28
2015-12-24T04:43:51.583Z,1023.23
2015-12-24T04:44:51.555Z,1023.27
2015-12-24T04:45:51.511Z,1023.22
2015-12-24T04:46:51.482Z,1023.24
2015-12-24T04:47:51.453Z,1023.24
2015-12-24T04:48:51.441Z,1023.21
2015-12-24T04:49:51.396Z,1023.21
2015-12-24T04:50:52.790Z,1023.27
2015-12-24T04:51:51.339Z,1023.26
2015-12-24T04:52:51.327Z,1023.28
2015-12-24T04:53:51.267Z,1023.27
2015-12-24T04:54:51.254Z,1023.24
2015-12-24T04:55:51.210Z,1023.22
2015-12-24T04:56:51.571Z,1023.13
2015-12-24T04:57:51.152Z,1023.11
2015-12-24T04:58:51.124Z,1023.15
2015-12-24T04:59:51.096Z,1023.13
2015-12-24T05:01:00.099Z,1023.11
2015-12-24T05:01:51.039Z,1023.14
2015-12-24T05:02:51.011Z,1023.08
2015-12-24T05:03:50.982Z,1023.12
2015-12-24T05:04:50.938Z,1023.12
2015-12-24T05:05:50.925Z,1023.09
2015-12-24T05:06:50.881Z,1023.1
2015-12-24T05:07:50.852Z,1023.13
2015-12-24T05:08:50.824Z,1023.21
2015-12-24T05:09:50.796Z,1023.25
2015-12-24T05:10:50.766Z,1023.31
2015-12-24T05:11:50.738Z,1023.27
2015-12-24T05:12:50.710Z,1023.22
2015-12-24T05:14:03.479Z,1023.19
2015-12-24T05:14:50.637Z,1023.18
2015-12-24T05:15:50.609Z,1023.19
2015-12-24T05:16:50.579Z,1023.25
2015-12-24T05:17:50.551Z,1023.24
2015-12-24T05:18:50.555Z,1023.27
2015-12-24T05:19:50.495Z,1023.26
2015-12-24T05:20:50.466Z,1023.2
2015-12-24T05:21:50.438Z,1023.12
2015-12-24T05:22:50.407Z,1023.17
2015-12-24T05:23:50.378Z,1023.16
2015-12-24T05:24:50.349Z,1023.13
2015-12-24T05:25:50.321Z,1023.12
2015-12-24T05:26:50.276Z,1023.12
2015-12-24T05:27:50.248Z,1023.11
2015-12-24T05:28:50.220Z,1023.11
2015-12-24T05:29:50.191Z,1023.16
2015-12-24T05:30:50.179Z,1023.19
2015-12-24T05:31:50.134Z,1023.16
2015-12-24T05:32:50.090Z,1023.15
2015-12-24T05:33:50.076Z,1023.14
2015-12-24T05:34:50.033Z,1023.11
2015-12-24T05:35:50.020Z,1023.07
2015-12-24T05:36:49.976Z,1023.11
2015-12-24T05:37:49.948Z,1023.12
2015-12-24T05:38:49.919Z,1023.08
2015-12-24T05:39:49.890Z,1023.04
2015-12-24T05:40:49.846Z,1023.08
2015-12-24T05:41:49.834Z,1023.09
2015-12-24T05:42:49.789Z,1023.05
2015-12-24T05:43:49.761Z,1023.11
2015-12-24T05:44:49.731Z,1023.08
2015-12-24T05:45:49.703Z,1023.13
2015-12-24T05:46:49.692Z,1023.12
2015-12-24T05:47:49.647Z,1023.1
2015-12-24T05:48:49.618Z,1023.11
2015-12-24T05:49:49.589Z,1023.06
2015-12-24T05:50:49.561Z,1022.98
2015-12-24T05:51:49.517Z,1023.04
2015-12-24T05:52:49.488Z,1022.97
2015-12-24T05:53:49.460Z,1022.97
2015-12-24T05:54:49.431Z,1023
2015-12-24T05:55:49.450Z,1023
2015-12-24T05:56:49.375Z,1022.99
2015-12-24T05:57:49.347Z,1022.93
2015-12-24T05:58:49.302Z,1022.94
2015-12-24T05:59:49.273Z,1022.93
2015-12-24T06:00:49.244Z,1022.94
2015-12-24T06:01:49.216Z,1023.01
2015-12-24T06:02:49.188Z,1022.96
2015-12-24T06:03:49.159Z,1022.97
2015-12-24T06:04:49.131Z,1022.98
2015-12-24T06:05:49.103Z,1022.96
2015-12-24T06:06:49.059Z,1022.97
2015-12-24T06:07:49.030Z,1022.95
2015-12-24T06:08:49.002Z,1023.01
2015-12-24T06:09:48.973Z,1022.96
2015-12-24T06:10:48.942Z,1022.97
2015-12-24T06:11:48.914Z,1022.91
2015-12-24T06:12:48.885Z,1022.91
2015-12-24T06:13:48.856Z,1022.91
2015-12-24T06:14:48.827Z,1022.93
2015-12-24T06:15:48.799Z,1022.91
2015-12-24T06:16:48.771Z,1022.93
2015-12-24T06:17:48.742Z,1022.93
2015-12-24T06:18:48.697Z,1022.92
2015-12-24T06:19:48.669Z,1022.88
2015-12-24T06:20:48.641Z,1022.92
2015-12-24T06:21:48.612Z,1022.92
2015-12-24T06:22:48.583Z,1022.89
2015-12-24T06:23:48.555Z,1022.88
2015-12-24T06:24:48.511Z,1022.86
2015-12-24T06:25:48.482Z,1022.86
2015-12-24T06:26:48.470Z,1022.9
2015-12-24T06:27:48.441Z,1022.86
2015-12-24T06:28:48.397Z,1022.92
2015-12-24T06:29:48.369Z,1022.88
2015-12-24T06:30:48.341Z,1022.87
2015-12-24T06:31:48.312Z,1022.86
2015-12-24T06:32:48.283Z,1022.81
2015-12-24T06:33:48.270Z,1022.84
2015-12-24T06:34:48.211Z,1022.81
2015-12-24T06:35:48.182Z,1022.81
2015-12-24T06:36:48.169Z,1022.82
2015-12-24T06:37:48.124Z,1022.73
2015-12-24T06:38:48.097Z,1022.74
2015-12-24T06:39:48.068Z,1022.76
2015-12-24T06:40:48.040Z,1022.76
2015-12-24T06:41:48.011Z,1022.8
2015-12-24T06:42:47.982Z,1022.75
2015-12-24T06:43:47.938Z,1022.76
2015-12-24T06:44:47.909Z,1022.75
2015-12-24T06:45:47.881Z,1022.74
2015-12-24T06:46:47.853Z,1022.72
2015-12-24T06:47:47.824Z,1022.78
2015-12-24T06:48:47.795Z,1022.75
2015-12-24T06:49:47.767Z,1022.73
2015-12-24T06:50:47.723Z,1022.77
2015-12-24T06:51:47.710Z,1022.73
2015-12-24T06:52:47.682Z,1022.66
2015-12-24T06:53:47.638Z,1022.73
2015-12-24T06:54:47.610Z,1022.69
2015-12-24T06:55:47.581Z,1022.68
2015-12-24T06:56:47.552Z,1022.71
2015-12-24T06:57:47.524Z,1022.67
2015-12-24T06:58:47.493Z,1022.68
2015-12-24T06:59:47.464Z,1022.68
2015-12-24T07:00:47.435Z,1022.69
2015-12-24T07:01:47.423Z,1022.65
2015-12-24T07:02:47.379Z,1022.63
2015-12-24T07:03:47.350Z,1022.66
2015-12-24T07:04:47.321Z,1022.63
2015-12-24T07:05:47.278Z,1022.65
2015-12-24T07:06:47.248Z,1022.62
2015-12-24T07:07:47.220Z,1022.61
2015-12-24T07:08:47.192Z,1022.62
2015-12-24T07:09:47.164Z,1022.6
2015-12-24T07:10:47.134Z,1022.64
2015-12-24T07:11:47.090Z,1022.6
2015-12-24T07:12:47.061Z,1022.62
2015-12-24T07:13:47.034Z,1022.59
2015-12-24T07:14:47.006Z,1022.57
2015-12-24T07:15:46.976Z,1022.57
2015-12-24T07:16:46.948Z,1022.58
2015-12-24T07:17:46.920Z,1022.58
2015-12-24T07:18:46.891Z,1022.61
2015-12-24T07:19:46.862Z,1022.58
2015-12-24T07:20:46.819Z,1022.54
2015-12-24T07:21:46.790Z,1022.51
2015-12-24T07:22:46.761Z,1022.49
2015-12-24T07:23:46.734Z,1022.48
2015-12-24T07:24:46.736Z,1022.47
2015-12-24T07:25:46.675Z,1022.47
2015-12-24T07:26:46.647Z,1022.4
2015-12-24T07:27:46.619Z,1022.39
2015-12-24T07:28:46.574Z,1022.36
2015-12-24T07:29:46.547Z,1022.36
2015-12-24T07:30:46.517Z,1022.32
2015-12-24T07:31:46.489Z,1022.31
2015-12-24T07:32:46.461Z,1022.3
2015-12-24T07:33:46.447Z,1022.31
2015-12-24T07:34:46.403Z,1022.33
2015-12-24T07:35:46.375Z,1022.34
2015-12-24T07:36:46.362Z,1022.31
2015-12-24T07:37:46.318Z,1022.28
2015-12-24T07:38:46.274Z,1022.35
2015-12-24T07:39:46.261Z,1022.37
2015-12-24T07:40:46.216Z,1022.34
2015-12-24T07:41:46.189Z,1022.33
2015-12-24T07:42:46.160Z,1022.32
2015-12-24T07:43:46.132Z,1022.32
2015-12-24T07:44:46.103Z,1022.29
2015-12-24T07:45:46.072Z,1022.28
2015-12-24T07:46:46.043Z,1022.3
2015-12-24T07:47:46.016Z,1022.24
2015-12-24T07:48:45.986Z,1022.23
2015-12-24T07:49:45.942Z,1022.19
2015-12-24T07:50:45.930Z,1022.2
2015-12-24T07:51:45.886Z,1022.18
2015-12-24T07:52:45.857Z,1022.18
2015-12-24T07:53:45.828Z,1022.2
2015-12-24T07:54:45.800Z,1022.17
2015-12-24T07:55:45.772Z,1022.15
2015-12-24T07:56:45.774Z,1022.18
2015-12-24T07:57:45.687Z,1022.19
2015-12-24T07:58:45.644Z,1022.18
2015-12-24T07:59:45.600Z,1022.17
2015-12-24T08:00:45.557Z,1022.16
2015-12-24T08:01:45.514Z,1022.15
2015-12-24T08:02:45.480Z,1022.14
2015-12-24T08:03:45.446Z,1022.13
2015-12-24T08:04:45.429Z,1022.13
2015-12-24T08:05:45.379Z,1022.17
2015-12-24T08:06:45.330Z,1022.14
2015-12-24T08:07:45.300Z,1022.13
2015-12-24T08:08:45.268Z,1022.19
2015-12-24T08:09:45.238Z,1022.16
2015-12-24T08:10:45.209Z,1022.19
2015-12-24T08:11:45.179Z,1022.2
2015-12-24T08:12:45.148Z,1022.16
2015-12-24T08:13:45.104Z,1022.16
2015-12-24T08:14:45.074Z,1022.19
2015-12-24T08:15:45.046Z,1022.17
2015-12-24T08:16:45.047Z,1022.18
2015-12-24T08:17:44.988Z,1022.22
2015-12-24T08:18:44.958Z,1022.18
2015-12-24T08:19:44.930Z,1022.2
2015-12-24T08:20:44.901Z,1022.22
2015-12-24T08:21:44.856Z,1022.2
2015-12-24T08:22:44.828Z,1022.25
2015-12-24T08:23:44.799Z,1022.23
2015-12-24T08:24:44.771Z,1022.23
2015-12-24T08:25:44.742Z,1022.23
2015-12-24T08:26:44.715Z,1022.18
2015-12-24T08:27:44.685Z,1022.22
2015-12-24T08:28:44.673Z,1022.19
2015-12-24T08:29:44.628Z,1022.17
2015-12-24T08:30:44.600Z,1022.09
2015-12-24T08:31:44.553Z,1022.14
2015-12-24T08:32:44.524Z,1022.17
2015-12-24T08:33:44.496Z,1022.16
2015-12-24T08:34:44.467Z,1022.11
2015-12-24T08:35:44.439Z,1022.08
2015-12-24T08:36:44.411Z,1022.07
2015-12-24T08:37:44.381Z,1022.03
2015-12-24T08:38:44.353Z,1022.07
2015-12-24T08:39:44.325Z,1022.02
2015-12-24T08:40:44.297Z,1022.01
2015-12-24T08:41:44.300Z,1022.03
2015-12-24T08:42:44.239Z,1022.03
2015-12-24T08:43:44.257Z,1022.01
2015-12-24T08:44:44.198Z,1021.95
2015-12-24T08:45:44.154Z,1021.97
2015-12-24T08:46:44.125Z,1021.96
2015-12-24T08:47:44.081Z,1021.94
2015-12-24T08:48:44.052Z,1021.9
2015-12-24T08:49:44.024Z,1021.94
2015-12-24T08:50:43.980Z,1021.94
2015-12-24T08:51:43.951Z,1021.92
2015-12-24T08:52:43.922Z,1021.95
2015-12-24T08:53:43.895Z,1021.95
2015-12-24T08:54:43.866Z,1021.94
2015-12-24T08:55:43.838Z,1021.96
2015-12-24T08:56:43.809Z,1022.01
2015-12-24T08:57:43.780Z,1021.98
2015-12-24T08:58:43.736Z,1022.02
2015-12-24T08:59:43.708Z,1021.98
2015-12-24T09:00:43.679Z,1022.01
2015-12-24T09:01:43.650Z,1022.03
2015-12-24T09:02:43.638Z,1022
2015-12-24T09:03:43.594Z,1022.01
2015-12-24T09:04:43.565Z,1022
2015-12-24T09:05:43.536Z,1021.95
2015-12-24T09:06:43.508Z,1021.96
2015-12-24T09:07:43.463Z,1021.94
2015-12-24T09:08:43.435Z,1021.92
2015-12-24T09:09:43.407Z,1021.95
2015-12-24T09:10:43.378Z,1021.9
2015-12-24T09:11:43.349Z,1021.91
2015-12-24T09:12:43.321Z,1021.93
2015-12-24T09:13:43.293Z,1021.94
2015-12-24T09:14:43.264Z,1021.87
2015-12-24T09:15:43.235Z,1021.87
2015-12-24T09:16:43.192Z,1021.9
2015-12-24T09:17:43.163Z,1021.83
2015-12-24T09:18:43.151Z,1021.78
2015-12-24T09:19:43.107Z,1021.78
2015-12-24T09:20:43.077Z,1021.8
2015-12-24T09:21:43.049Z,1021.81
2015-12-24T09:22:43.018Z,1021.69
2015-12-24T09:23:43.005Z,1021.73
2015-12-24T09:24:42.946Z,1021.74
2015-12-24T09:25:42.917Z,1021.66
2015-12-24T09:26:42.888Z,1021.68
2015-12-24T09:27:42.860Z,1021.69
2015-12-24T09:28:42.831Z,1021.64
2015-12-24T09:29:42.803Z,1021.66
2015-12-24T09:30:42.774Z,1021.61
2015-12-24T09:31:42.746Z,1021.64
2015-12-24T09:32:42.701Z,1021.64
2015-12-24T09:33:42.673Z,1021.58
2015-12-24T09:39:44.127Z,1021.67
2015-12-24T09:40:44.083Z,1021.69
2015-12-24T09:41:44.070Z,1021.69
2015-12-24T09:42:44.026Z,1021.6
2015-12-24T09:43:43.997Z,1021.55
2015-12-24T09:44:43.970Z,1021.63
2015-12-24T09:45:43.940Z,1021.59
2015-12-24T09:46:43.896Z,1021.62
2015-12-24T09:47:43.867Z,1021.61
2015-12-24T09:48:43.839Z,1021.55
2015-12-24T09:49:43.811Z,1021.65
2015-12-24T09:50:43.782Z,1021.63
2015-12-24T09:51:43.770Z,1021.66
2015-12-24T09:52:43.725Z,1021.6
2015-12-24T09:53:43.696Z,1021.63
2015-12-24T09:54:43.667Z,1021.61
2015-12-24T09:55:43.624Z,1021.55
2015-12-24T09:56:43.892Z,1021.47
2015-12-24T09:57:43.583Z,1021.56
2015-12-24T09:58:43.539Z,1021.48
2015-12-24T09:59:43.510Z,1021.46
2015-12-24T10:00:43.498Z,1021.43
2015-12-24T10:01:43.453Z,1021.51
2015-12-24T10:02:43.424Z,1021.48
2015-12-24T10:03:43.397Z,1021.46
2015-12-24T10:04:43.367Z,1021.48
2015-12-24T10:05:43.339Z,1021.39
2015-12-24T10:06:43.295Z,1021.39
2015-12-24T10:07:43.266Z,1021.4
2015-12-24T10:08:43.254Z,1021.35
2015-12-24T10:09:43.209Z,1021.37
2015-12-24T10:10:43.181Z,1021.41
2015-12-24T10:11:43.153Z,1021.34
2015-12-24T10:12:43.124Z,1021.31
2015-12-24T10:13:43.127Z,1021.31
2015-12-24T10:14:43.114Z,1021.3
2015-12-24T10:15:43.098Z,1021.31
2015-12-24T10:16:43.022Z,1021.26
2015-12-24T10:17:42.978Z,1021.17
2015-12-24T10:18:42.950Z,1021.19
2015-12-24T10:19:42.922Z,1021.16
2015-12-24T10:20:42.955Z,1021.22
2015-12-24T10:21:42.958Z,1021.25
2015-12-24T10:22:43.195Z,1021.17
2015-12-24T10:23:42.808Z,1021.2
2015-12-24T10:24:42.794Z,1021.19
2015-12-24T10:25:42.813Z,1021.14
2015-12-24T10:26:42.738Z,1021.11
2015-12-24T10:27:42.693Z,1021.03
2015-12-24T10:28:42.665Z,1021.02
2015-12-24T10:29:42.635Z,1020.97
2015-12-24T10:30:42.670Z,1020.95
2015-12-24T10:31:42.563Z,1020.98
2015-12-24T10:32:42.535Z,1020.92
2015-12-24T10:33:42.522Z,1020.88
2015-12-24T10:34:42.494Z,1020.87
2015-12-24T10:35:42.449Z,1020.8
2015-12-24T10:36:42.405Z,1020.81
2015-12-24T10:37:42.362Z,1020.76
2015-12-24T10:38:42.333Z,1020.83
2015-12-24T10:39:42.304Z,1020.7
2015-12-24T10:40:42.276Z,1020.66
2015-12-24T10:41:42.248Z,1020.7
2015-12-24T10:42:42.251Z,1020.68
2015-12-24T10:43:42.190Z,1020.62
2015-12-24T10:44:42.193Z,1020.71
2015-12-24T10:45:42.134Z,1020.61
2015-12-24T10:46:42.104Z,1020.7
2015-12-24T10:47:42.107Z,1020.67
2015-12-24T10:48:42.079Z,1020.68
2015-12-24T10:49:42.004Z,1020.69
2015-12-24T10:50:42.053Z,1020.66
2015-12-24T10:51:41.962Z,1020.58
2015-12-24T10:52:41.996Z,1020.53
2015-12-24T10:53:41.906Z,1020.59
2015-12-24T10:54:41.876Z,1020.59
2015-12-24T10:55:41.895Z,1020.52
2015-12-24T10:56:41.851Z,1020.46
2015-12-24T10:57:41.759Z,1020.51
2015-12-24T10:58:41.747Z,1020.44
2015-12-24T10:59:41.719Z,1020.46
2015-12-24T11:00:41.689Z,1020.44
2015-12-24T11:01:41.678Z,1020.43
2015-12-24T11:02:41.649Z,1020.46
2015-12-24T11:03:41.589Z,1020.47
2015-12-24T11:04:41.558Z,1020.43
2015-12-24T11:05:41.610Z,1020.44
2015-12-24T11:06:41.517Z,1020.38
2015-12-24T11:07:41.472Z,1020.43
2015-12-24T11:08:41.459Z,1020.4
2015-12-24T11:09:41.400Z,1020.36
2015-12-24T11:10:41.465Z,1020.36
2015-12-24T11:11:41.373Z,1020.31
2015-12-24T11:12:41.345Z,1020.29
2015-12-24T11:13:41.300Z,1020.29
2015-12-24T11:14:41.256Z,1020.26
2015-12-24T11:15:41.306Z,1020.21
2015-12-24T11:16:41.200Z,1020.23
2015-12-24T11:17:41.171Z,1020.18
2015-12-24T11:18:41.142Z,1020.14
2015-12-24T11:19:41.100Z,1020.22
2015-12-24T11:20:41.085Z,1020.2
2015-12-24T11:21:41.042Z,1020.18
2015-12-24T11:22:41.014Z,1020.12
2015-12-24T11:23:41.016Z,1020.16
2015-12-24T11:24:41.003Z,1020.14
2015-12-24T11:25:41.005Z,1020.15
2015-12-24T11:26:41.165Z,1020.13
2015-12-24T11:27:40.871Z,1020.15
2015-12-24T11:28:40.842Z,1020.19
2015-12-24T11:29:40.829Z,1020.18
2015-12-24T11:30:40.848Z,1020.22
2015-12-24T11:31:40.772Z,1020.15
2015-12-24T11:32:40.713Z,1020.17
2015-12-24T11:33:40.700Z,1020.17
2015-12-24T11:34:40.655Z,1020.18
2015-12-24T11:35:40.627Z,1020.23
2015-12-24T11:36:40.598Z,1020.14
2015-12-24T11:37:40.586Z,1020.17
2015-12-24T11:38:40.526Z,1020.13
2015-12-24T11:39:40.496Z,1020.17
2015-12-24T11:40:40.468Z,1020.14
2015-12-24T11:41:40.440Z,1020.14
2015-12-24T11:42:40.412Z,1020.18
2015-12-24T11:43:40.383Z,1020.14
2015-12-24T11:44:40.355Z,1020.12
2015-12-24T11:45:40.326Z,1020.06
2015-12-24T11:47:06.125Z,1020.06
2015-12-24T11:47:40.285Z,1020.02
2015-12-24T11:48:40.928Z,1020.08
2015-12-24T11:49:40.227Z,1020.02
2015-12-24T11:50:40.262Z,1020.03
2015-12-24T11:51:40.170Z,1019.98
2015-12-24T11:52:40.157Z,1019.96
2015-12-24T11:53:40.098Z,1019.95
2015-12-24T11:54:40.070Z,1019.94
2015-12-24T11:55:40.040Z,1019.9
2015-12-24T11:56:39.996Z,1019.88
2015-12-24T11:57:39.968Z,1019.9
2015-12-24T11:58:39.939Z,1019.88
2015-12-24T11:59:39.911Z,1019.84
2015-12-24T12:00:39.882Z,1019.81
2015-12-24T12:01:39.853Z,1019.81
2015-12-24T12:02:39.825Z,1019.76
2015-12-24T12:03:39.781Z,1019.75
2015-12-24T12:04:39.768Z,1019.76
2015-12-24T12:05:39.739Z,1019.72
2015-12-24T12:06:39.695Z,1019.77
2015-12-24T12:07:39.666Z,1019.77
2015-12-24T12:08:39.653Z,1019.7
2015-12-24T12:09:39.610Z,1019.74
2015-12-24T12:10:39.580Z,1019.76
2015-12-24T12:11:39.552Z,1019.73
2015-12-24T12:12:39.523Z,1019.7